Portada
METAR-TAF:

METAR-TAF

Aeropuertos :

Turaif, Arabia Saudita

latitud: 31-41N, longitud: 038-44E, altitud: 813 m

Observación

El informe se hizo hace 53 minutos, a las 06:00 UTC
Viento 4 kt del oeste
Temperatura 24°C
Humedad 47%
Presión 1013 hPa
Visibilidad 10 km o más
sin nubes por debajo de 1500 m y sin presencia de cumulonimbus.

METAR: OETR 190600Z 28004KT CAVOK 24/12 Q1013 NOSIG

Hora: 09:53 (06:53 UTC)

Pronóstico

El informe se hizo hace 7 horas y 53 minutos, a las 23:00 UTC
Pronóstico válido del 19 a las 00 UTC al 20 a las 06 UTC
Viento 5 kt del norte-noroeste
Visibilidad 10 km o más
sin nubes por debajo de 1500 m y sin presencia de cumulonimbus.
Evolucionando progresivamente
del 19 a las 06 UTC al 19 a las 08 UTC
Viento 10 kt del oeste
Evolucionando progresivamente
del 20 a las 01 UTC al 20 a las 03 UTC
Viento 10 kt del norte-noreste

TAF: OETR 182300Z 1900/2006 34005KT CAVOK BECMG 1906/1908 27010KT BECMG 2001/2003 02010KT

Observaciones y pronósticos meteorológicos de más de 4000 aeropuertos (mensajes METAR y TAF).

Los puntos amarillos y rojos representan las estaciones disponibles.

Ponga el ratón en el punto deseado para ver el nombre de la estación.

Haga clic para ver las observaciones y los pronósticos meteorológicos.

Para cambiar el mapa : haga clic en los botones verdes con una cruz de color negro para hacer un zoom, en el botón verde con un guión para alejar o en las flechas verdes para mapas adyacentes.


METAR-TAF: